Terminal Aerodrome Forecast
Issued by NWS Flagstaff, AZ

Home | Current Version | Previous Version | Text Only | Print | Product List | Glossary On
Versions: 1 2 3 4 5 6 7 8 9 10 11 12 13 14 15
000
FTUS45 KFGZ 242300
TAFFLG
TAF
KFLG 242337Z 2500/2524 23011KT P6SM VCSH FEW007 SCT020 OVC070
      TEMPO 2500/2503 BKN020
     FM250300 22007KT P6SM SCT012 BKN035
     FM251800 23014G28KT P6SM VCSH SCT018 BKN035 BKN050
      TEMPO 2520/2524 3SM -SHRA BKN018=

USA.gov is the U.S. government's official web portal to all federal, state and local government web resources and services.